createdAt,value
2023-01-17T00:00:02.535Z,99.02
2023-01-17T00:01:02.425Z,98.85
2023-01-17T00:02:02.519Z,99.99
2023-01-17T00:03:02.460Z,99.12
2023-01-17T00:04:02.438Z,99.06
2023-01-17T00:05:02.434Z,98.81
2023-01-17T00:06:02.434Z,99.06
2023-01-17T00:07:02.394Z,98.50
2023-01-17T00:08:02.454Z,98.60
2023-01-17T00:09:02.373Z,98.60
2023-01-17T00:10:02.416Z,98.08
2023-01-17T00:11:02.374Z,98.91
2023-01-17T00:12:02.343Z,98.19
2023-01-17T00:13:02.367Z,98.39
2023-01-17T00:14:02.426Z,98.44
2023-01-17T00:15:02.341Z,98.19
2023-01-17T00:16:02.352Z,98.13
2023-01-17T00:17:02.321Z,98.44
2023-01-17T00:18:02.340Z,98.23
2023-01-17T00:19:02.310Z,98.50
2023-01-17T00:20:02.851Z,98.75
2023-01-17T00:21:02.280Z,98.33
2023-01-17T00:22:02.289Z,98.96
2023-01-17T00:23:02.307Z,99.06
2023-01-17T00:24:02.272Z,98.44
2023-01-17T00:25:02.295Z,98.96
2023-01-17T00:26:02.330Z,98.44
2023-01-17T00:27:02.263Z,98.54
2023-01-17T00:28:02.269Z,99.33
2023-01-17T00:29:02.258Z,98.96
2023-01-17T00:30:02.269Z,99.27
2023-01-17T00:31:02.306Z,99.54
2023-01-17T00:32:02.285Z,98.96
2023-01-17T00:33:02.235Z,99.37
2023-01-17T00:34:02.223Z,98.75
2023-01-17T00:35:02.205Z,99.06
2023-01-17T00:36:02.211Z,98.85
2023-01-17T00:37:02.200Z,99.79
2023-01-17T00:38:02.283Z,99.99
2023-01-17T00:39:02.200Z,99.99
2023-01-17T00:40:02.188Z,99.99
2023-01-17T00:41:02.182Z,99.99
2023-01-17T00:42:02.175Z,99.99
2023-01-17T00:43:02.150Z,99.85
2023-01-17T00:44:02.232Z,99.99
2023-01-17T00:45:02.167Z,99.74
2023-01-17T00:46:02.110Z,99.64
2023-01-17T00:47:02.168Z,99.33
2023-01-17T00:48:02.105Z,99.79
2023-01-17T00:49:02.111Z,98.96
2023-01-17T00:50:02.282Z,99.22
2023-01-17T00:51:02.122Z,99.16
2023-01-17T00:52:02.081Z,98.54
2023-01-17T00:53:02.080Z,98.54
2023-01-17T00:54:02.077Z,98.85
2023-01-17T00:55:02.124Z,98.08
2023-01-17T00:56:02.099Z,97.14
2023-01-17T00:57:02.065Z,96.94
2023-01-17T00:58:02.106Z,97.45
2023-01-17T00:59:02.019Z,97.09
2023-01-17T01:00:02.134Z,96.52
2023-01-17T01:01:02.093Z,96.31
2023-01-17T01:02:02.234Z,96.31
2023-01-17T01:03:02.003Z,96.94
2023-01-17T01:04:02.003Z,97.25
2023-01-17T01:05:01.987Z,97.45
2023-01-17T01:06:01.980Z,96.21
2023-01-17T01:07:01.954Z,97.04
2023-01-17T01:08:02.002Z,97.45
2023-01-17T01:09:01.958Z,97.77
2023-01-17T01:10:01.956Z,97.19
2023-01-17T01:11:01.944Z,97.14
2023-01-17T01:12:01.958Z,97.25
2023-01-17T01:13:01.921Z,96.88
2023-01-17T01:14:01.983Z,96.42
2023-01-17T01:15:01.914Z,96.62
2023-01-17T01:16:01.928Z,96.78
2023-01-17T01:17:01.914Z,96.62
2023-01-17T01:18:01.891Z,95.63
2023-01-17T01:19:01.890Z,95.28
2023-01-17T01:20:01.922Z,95.28
2023-01-17T01:21:01.875Z,95.21
2023-01-17T01:22:01.863Z,94.96
2023-01-17T01:23:01.865Z,94.45
2023-01-17T01:24:01.854Z,94.96
2023-01-17T01:25:01.847Z,95.07
2023-01-17T01:26:02.280Z,95.17
2023-01-17T01:27:01.833Z,94.86
2023-01-17T01:28:01.817Z,95.28
2023-01-17T01:29:01.830Z,95.07
2023-01-17T01:30:01.801Z,95.38
2023-01-17T01:31:01.799Z,95.17
2023-01-17T01:32:01.844Z,94.34
2023-01-17T01:33:01.781Z,94.65
2023-01-17T01:34:01.800Z,94.55
2023-01-17T01:35:01.791Z,94.86
2023-01-17T01:36:01.759Z,94.55
2023-01-17T01:37:01.762Z,94.55
2023-01-17T01:38:01.786Z,94.24
2023-01-17T01:39:01.754Z,93.93
2023-01-17T01:40:01.756Z,93.82
2023-01-17T01:41:01.733Z,94.45
2023-01-17T01:42:01.724Z,94.34
2023-01-17T01:43:01.733Z,95.28
2023-01-17T01:44:01.759Z,95.59
2023-01-17T01:45:01.701Z,94.86
2023-01-17T01:46:01.763Z,95.48
2023-01-17T01:47:01.688Z,94.86
2023-01-17T01:48:01.706Z,95.69
2023-01-17T01:49:01.678Z,95.79
2023-01-17T01:50:01.718Z,95.79
2023-01-17T01:51:01.689Z,96.52
2023-01-17T01:52:01.675Z,96.73
2023-01-17T01:53:01.647Z,96.73
2023-01-17T01:54:01.656Z,97.09
2023-01-17T01:55:01.635Z,96.83
2023-01-17T01:56:01.748Z,96.11
2023-01-17T01:57:01.630Z,96.25
2023-01-17T01:58:01.619Z,96.78
2023-01-17T01:59:01.603Z,97.19
2023-01-17T02:00:01.644Z,97.40
2023-01-17T02:01:01.731Z,97.71
2023-01-17T02:02:01.624Z,98.02
2023-01-17T02:03:01.582Z,97.40
2023-01-17T02:04:01.601Z,97.09
2023-01-17T02:05:04.524Z,97.50
2023-01-17T02:06:01.572Z,97.40
2023-01-17T02:07:01.571Z,97.61
2023-01-17T02:08:01.611Z,97.71
2023-01-17T02:09:01.547Z,97.40
2023-01-17T02:10:01.561Z,97.55
2023-01-17T02:11:01.541Z,98.17
2023-01-17T02:12:01.549Z,98.27
2023-01-17T02:13:01.544Z,97.96
2023-01-17T02:14:01.559Z,98.38
2023-01-17T02:15:01.481Z,98.07
2023-01-17T02:16:01.581Z,97.55
2023-01-17T02:17:01.483Z,97.86
2023-01-17T02:18:01.482Z,97.44
2023-01-17T02:19:01.519Z,97.65
2023-01-17T02:20:01.510Z,97.86
2023-01-17T02:21:01.481Z,97.44
2023-01-17T02:22:01.473Z,97.75
2023-01-17T02:23:01.486Z,97.65
2023-01-17T02:24:01.435Z,97.65
2023-01-17T02:25:01.438Z,97.24
2023-01-17T02:26:01.525Z,97.86
2023-01-17T02:27:01.421Z,97.65
2023-01-17T02:28:01.395Z,97.65
2023-01-17T02:29:01.419Z,98.07
2023-01-17T02:30:01.423Z,97.55
2023-01-17T02:31:01.384Z,96.51
2023-01-17T02:32:01.834Z,97.13
2023-01-17T02:33:01.368Z,96.51
2023-01-17T02:34:01.378Z,96.41
2023-01-17T02:35:01.396Z,96.51
2023-01-17T02:36:01.349Z,96.82
2023-01-17T02:37:01.347Z,96.30
2023-01-17T02:38:01.405Z,96.61
2023-01-17T02:39:01.339Z,97.03
2023-01-17T02:40:01.328Z,96.82
2023-01-17T02:41:01.319Z,97.03
2023-01-17T02:42:01.300Z,96.20
2023-01-17T02:43:01.296Z,96.92
2023-01-17T02:44:01.356Z,97.17
2023-01-17T02:45:01.290Z,97.34
2023-01-17T02:46:01.347Z,97.28
2023-01-17T02:47:01.276Z,97.24
2023-01-17T02:48:01.276Z,95.99
2023-01-17T02:49:01.252Z,96.30
2023-01-17T02:50:01.326Z,96.61
2023-01-17T02:51:01.246Z,95.99
2023-01-17T02:52:01.252Z,96.82
2023-01-17T02:53:01.240Z,96.20
2023-01-17T02:54:01.218Z,96.55
2023-01-17T02:55:01.237Z,96.61
2023-01-17T02:56:01.272Z,96.30
2023-01-17T02:57:01.193Z,96.41
2023-01-17T02:58:01.198Z,96.72
2023-01-17T02:59:01.197Z,96.86
2023-01-17T03:00:01.204Z,96.41
2023-01-17T03:01:01.286Z,96.72
2023-01-17T03:02:01.359Z,96.09
2023-01-17T03:03:01.180Z,95.83
2023-01-17T03:04:01.148Z,95.78
2023-01-17T03:05:01.148Z,95.57
2023-01-17T03:06:01.153Z,94.01
2023-01-17T03:07:01.126Z,94.64
2023-01-17T03:08:01.340Z,93.60
2023-01-17T03:09:01.131Z,92.55
2023-01-17T03:10:01.118Z,93.70
2023-01-17T03:11:01.128Z,93.60
2023-01-17T03:12:01.130Z,93.49
2023-01-17T03:13:01.096Z,93.60
2023-01-17T03:14:01.152Z,92.55
2023-01-17T03:15:01.078Z,92.66
2023-01-17T03:16:01.077Z,93.49
2023-01-17T03:17:01.074Z,93.91
2023-01-17T03:18:01.067Z,93.66
2023-01-17T03:19:01.064Z,93.49
2023-01-17T03:20:01.091Z,94.22
2023-01-17T03:21:01.038Z,93.70
2023-01-17T03:22:01.033Z,94.22
2023-01-17T03:23:01.016Z,93.60
2023-01-17T03:24:01.011Z,93.39
2023-01-17T03:25:01.026Z,93.49
2023-01-17T03:26:01.044Z,93.49
2023-01-17T03:27:00.996Z,92.86
2023-01-17T03:28:00.998Z,92.14
2023-01-17T03:29:01.015Z,91.77
2023-01-17T03:30:00.983Z,90.47
2023-01-17T03:31:01.024Z,91.25
2023-01-17T03:32:01.021Z,91.31
2023-01-17T03:33:00.944Z,91.00
2023-01-17T03:34:00.969Z,91.56
2023-01-17T03:35:01.000Z,91.25
2023-01-17T03:36:00.931Z,91.25
2023-01-17T03:37:00.936Z,91.46
2023-01-17T03:38:01.196Z,91.14
2023-01-17T03:39:00.918Z,91.14
2023-01-17T03:40:00.924Z,91.04
2023-01-17T03:41:00.885Z,91.14
2023-01-17T03:42:00.898Z,91.97
2023-01-17T03:43:00.900Z,92.18
2023-01-17T03:44:01.001Z,91.60
2023-01-17T03:45:00.866Z,92.74
2023-01-17T03:46:00.911Z,92.43
2023-01-17T03:47:00.883Z,92.43
2023-01-17T03:48:00.868Z,92.74
2023-01-17T03:49:00.835Z,93.01
2023-01-17T03:50:00.876Z,92.74
2023-01-17T03:51:00.847Z,92.64
2023-01-17T03:52:00.828Z,92.95
2023-01-17T03:53:00.805Z,93.48
2023-01-17T03:54:00.821Z,93.48
2023-01-17T03:55:00.799Z,94.76
2023-01-17T03:56:00.869Z,95.29
2023-01-17T03:57:00.799Z,95.29
2023-01-17T03:58:00.769Z,95.81
2023-01-17T03:59:00.787Z,95.91
2023-01-17T04:00:00.795Z,95.50
2023-01-17T04:01:00.875Z,96.43
2023-01-17T04:02:00.984Z,96.43
2023-01-17T04:03:00.761Z,96.85
2023-01-17T04:04:00.746Z,96.01
2023-01-17T04:05:00.731Z,96.53
2023-01-17T04:06:00.748Z,96.01
2023-01-17T04:07:00.707Z,96.22
2023-01-17T04:08:00.766Z,95.39
2023-01-17T04:09:00.712Z,96.85
2023-01-17T04:10:00.720Z,97.16
2023-01-17T04:11:00.705Z,96.85
2023-01-17T04:12:00.677Z,96.85
2023-01-17T04:13:00.693Z,97.31
2023-01-17T04:14:00.751Z,97.52
2023-01-17T04:15:00.678Z,97.98
2023-01-17T04:16:00.659Z,98.29
2023-01-17T04:17:00.663Z,98.92
2023-01-17T04:18:00.633Z,98.71
2023-01-17T04:19:00.631Z,98.55
2023-01-17T04:20:00.686Z,99.27
2023-01-17T04:21:00.614Z,99.02
2023-01-17T04:22:00.625Z,99.69
2023-01-17T04:23:00.653Z,99.38
2023-01-17T04:24:00.618Z,99.90
2023-01-17T04:25:00.586Z,99.99
2023-01-17T04:26:00.646Z,99.27
2023-01-17T04:27:00.583Z,99.65
2023-01-17T04:28:00.580Z,99.75
2023-01-17T04:29:00.581Z,99.27
2023-01-17T04:30:00.562Z,99.38
2023-01-17T04:31:00.615Z,99.17
2023-01-17T04:32:00.582Z,99.27
2023-01-17T04:33:00.546Z,99.13
2023-01-17T04:34:00.529Z,99.17
2023-01-17T04:35:00.531Z,99.44
2023-01-17T04:36:00.524Z,98.82
2023-01-17T04:37:00.511Z,98.65
2023-01-17T04:38:00.877Z,98.92
2023-01-17T04:39:00.493Z,98.55
2023-01-17T04:40:00.491Z,98.50
2023-01-17T04:41:00.489Z,98.71
2023-01-17T04:42:00.484Z,98.82
2023-01-17T04:43:00.461Z,99.02
2023-01-17T04:44:00.552Z,98.39
2023-01-17T04:45:00.473Z,98.82
2023-01-17T04:46:00.509Z,98.08
2023-01-17T04:47:00.430Z,97.77
2023-01-17T04:48:00.413Z,97.77
2023-01-17T04:49:00.444Z,97.88
2023-01-17T04:50:00.472Z,98.08
2023-01-17T04:51:00.417Z,97.88
2023-01-17T04:52:00.413Z,96.83
2023-01-17T04:53:00.419Z,97.14
2023-01-17T04:54:00.408Z,96.21
2023-01-17T04:55:00.375Z,95.54
2023-01-17T04:56:00.422Z,94.29
2023-01-17T04:57:00.386Z,93.66
2023-01-17T04:58:00.383Z,94.08
2023-01-17T04:59:00.368Z,93.66
2023-01-17T05:00:00.397Z,92.62
2023-01-17T05:01:00.382Z,93.56
2023-01-17T05:02:00.421Z,92.52
2023-01-17T05:03:00.334Z,92.35
2023-01-17T05:04:00.315Z,92.35
2023-01-17T05:05:00.330Z,92.52
2023-01-17T05:06:00.344Z,93.08
2023-01-17T05:07:00.295Z,93.71
2023-01-17T05:08:00.328Z,94.85
2023-01-17T05:09:00.283Z,94.75
2023-01-17T05:10:00.270Z,93.81
2023-01-17T05:11:00.259Z,94.33
2023-01-17T05:12:00.252Z,94.23
2023-01-17T05:13:00.258Z,94.37
2023-01-17T05:14:00.296Z,94.69
2023-01-17T05:15:00.240Z,95.06
2023-01-17T05:16:00.370Z,93.75
2023-01-17T05:17:00.235Z,94.27
2023-01-17T05:18:00.213Z,93.81
2023-01-17T05:19:00.220Z,93.96
2023-01-17T05:20:00.294Z,93.85
2023-01-17T05:21:00.195Z,94.37
2023-01-17T05:22:00.186Z,94.06
2023-01-17T05:23:00.203Z,94.17
2023-01-17T05:24:00.196Z,94.06
2023-01-17T05:25:00.165Z,94.17
2023-01-17T05:26:00.204Z,94.17
2023-01-17T05:27:00.161Z,93.85
2023-01-17T05:28:00.187Z,94.27
2023-01-17T05:29:00.151Z,94.37
2023-01-17T05:30:00.145Z,94.90
2023-01-17T05:31:00.196Z,94.90
2023-01-17T05:32:00.172Z,94.37
2023-01-17T05:33:00.104Z,94.00
2023-01-17T05:34:00.140Z,94.63
2023-01-17T05:35:00.103Z,94.00
2023-01-17T05:36:00.124Z,94.84
2023-01-17T05:37:00.093Z,94.31
2023-01-17T05:38:00.140Z,93.79
2023-01-17T05:39:00.089Z,93.65
2023-01-17T05:40:00.096Z,93.96
2023-01-17T05:41:00.083Z,92.44
2023-01-17T05:42:00.071Z,92.02
2023-01-17T05:43:00.033Z,91.66
2023-01-17T05:44:00.495Z,91.18
2023-01-17T05:45:00.048Z,91.56
2023-01-17T05:46:00.088Z,91.46
2023-01-17T05:47:00.011Z,90.41
2023-01-17T05:48:00.018Z,90.68
2023-01-17T05:49:00.026Z,90.41
2023-01-17T05:50:00.040Z,90.31
2023-01-17T05:51:00.009Z,90.58
2023-01-17T05:51:59.995Z,89.89
2023-01-17T05:52:59.985Z,90.41
2023-01-17T05:53:59.964Z,90.16
2023-01-17T05:54:59.977Z,89.32
2023-01-17T05:56:00.000Z,89.85
2023-01-17T05:56:59.948Z,90.47
2023-01-17T05:57:59.967Z,90.26
2023-01-17T05:58:59.957Z,91.00
2023-01-17T05:59:59.928Z,90.26
2023-01-17T06:00:59.941Z,89.54
2023-01-17T06:01:59.967Z,89.64
2023-01-17T06:02:59.980Z,90.26
2023-01-17T06:03:59.916Z,89.95
2023-01-17T06:05:02.454Z,90.16
2023-01-17T06:05:59.870Z,90.37
2023-01-17T06:06:59.863Z,90.26
2023-01-17T06:07:59.928Z,89.95
2023-01-17T06:08:59.855Z,87.76
2023-01-17T06:09:59.880Z,88.39
2023-01-17T06:10:59.837Z,89.12
2023-01-17T06:11:59.833Z,89.95
2023-01-17T06:12:59.822Z,88.08
2023-01-17T06:13:59.893Z,88.29
2023-01-17T06:14:59.856Z,88.18
2023-01-17T06:15:59.839Z,88.35
2023-01-17T06:16:59.794Z,88.76
2023-01-17T06:17:59.793Z,89.22
2023-01-17T06:18:59.790Z,89.32
2023-01-17T06:19:59.857Z,88.76
2023-01-17T06:20:59.764Z,88.49
2023-01-17T06:21:59.761Z,88.91
2023-01-17T06:22:59.774Z,88.91
2023-01-17T06:23:59.760Z,88.91
2023-01-17T06:24:59.747Z,87.87
2023-01-17T06:25:59.763Z,88.81
2023-01-17T06:26:59.767Z,89.01
2023-01-17T06:27:59.723Z,88.60
2023-01-17T06:28:59.741Z,88.66
2023-01-17T06:29:59.732Z,88.91
2023-01-17T06:30:59.719Z,88.49
2023-01-17T06:32:01.693Z,88.91
2023-01-17T06:32:59.708Z,88.45
2023-01-17T06:33:59.693Z,88.70
2023-01-17T06:34:59.679Z,88.81
2023-01-17T06:35:59.691Z,90.06
2023-01-17T06:36:59.663Z,89.85
2023-01-17T06:37:59.717Z,89.22
2023-01-17T06:38:59.662Z,89.95
2023-01-17T06:39:59.655Z,90.68
2023-01-17T06:40:59.630Z,90.58
2023-01-17T06:41:59.646Z,90.47
2023-01-17T06:42:59.625Z,90.37
2023-01-17T06:43:59.654Z,90.26
2023-01-17T06:44:59.632Z,89.85
2023-01-17T06:45:59.611Z,89.85
2023-01-17T06:46:59.610Z,91.00
2023-01-17T06:47:59.594Z,90.37
2023-01-17T06:48:59.585Z,90.58
2023-01-17T06:50:00.155Z,90.58
2023-01-17T06:50:59.629Z,90.06
2023-01-17T06:51:59.551Z,90.26
2023-01-17T06:52:59.580Z,90.20
2023-01-17T06:53:59.551Z,90.37
2023-01-17T06:54:59.535Z,91.00
2023-01-17T06:55:59.635Z,89.95
2023-01-17T06:56:59.530Z,90.26
2023-01-17T06:57:59.622Z,90.16
2023-01-17T06:58:59.506Z,89.85
2023-01-17T06:59:59.485Z,90.00
2023-01-17T07:00:59.588Z,91.00
2023-01-17T07:01:59.522Z,90.52
2023-01-17T07:02:59.490Z,90.47
2023-01-17T07:03:59.494Z,89.47
2023-01-17T07:04:59.493Z,89.32
2023-01-17T07:05:59.448Z,90.47
2023-01-17T07:06:59.454Z,90.68
2023-01-17T07:07:59.497Z,90.06
2023-01-17T07:08:59.433Z,90.06
2023-01-17T07:09:59.424Z,90.89
2023-01-17T07:10:59.415Z,90.26
2023-01-17T07:11:59.415Z,90.58
2023-01-17T07:12:59.402Z,89.75
2023-01-17T07:13:59.473Z,90.16
2023-01-17T07:14:59.401Z,90.68
2023-01-17T07:15:59.427Z,91.00
2023-01-17T07:16:59.369Z,90.16
2023-01-17T07:17:59.365Z,90.68
2023-01-17T07:18:59.368Z,90.26
2023-01-17T07:19:59.403Z,90.89
2023-01-17T07:20:59.349Z,91.20
2023-01-17T07:21:59.353Z,90.26
2023-01-17T07:22:59.361Z,90.37
2023-01-17T07:23:59.326Z,90.47
2023-01-17T07:24:59.323Z,89.89
2023-01-17T07:25:59.386Z,91.25
2023-01-17T07:26:59.324Z,91.46
2023-01-17T07:27:59.297Z,91.77
2023-01-17T07:28:59.297Z,91.04
2023-01-17T07:29:59.278Z,91.04
2023-01-17T07:30:59.309Z,91.35
2023-01-17T07:31:59.328Z,90.47
2023-01-17T07:32:59.297Z,91.31
2023-01-17T07:33:59.291Z,91.41
2023-01-17T07:34:59.240Z,91.31
2023-01-17T07:35:59.255Z,91.41
2023-01-17T07:36:59.254Z,91.52
2023-01-17T07:37:59.292Z,90.93
2023-01-17T07:38:59.217Z,91.35
2023-01-17T07:39:59.234Z,91.97
2023-01-17T07:40:59.216Z,91.77
2023-01-17T07:41:59.201Z,91.87
2023-01-17T07:42:59.197Z,92.35
2023-01-17T07:43:59.244Z,92.40
2023-01-17T07:44:59.193Z,92.25
2023-01-17T07:46:01.292Z,92.40
2023-01-17T07:46:59.163Z,93.02
2023-01-17T07:47:59.164Z,93.23
2023-01-17T07:48:59.149Z,92.81
2023-01-17T07:49:59.186Z,92.60
2023-01-17T07:50:59.133Z,92.71
2023-01-17T07:51:59.135Z,92.91
2023-01-17T07:52:59.132Z,92.71
2023-01-17T07:53:59.147Z,92.56
2023-01-17T07:54:59.132Z,92.40
2023-01-17T07:55:59.385Z,92.40
2023-01-17T07:56:59.089Z,91.77
2023-01-17T07:57:59.946Z,92.56
2023-01-17T07:58:59.105Z,91.10
2023-01-17T07:59:59.077Z,91.25
2023-01-17T08:00:59.198Z,91.62
2023-01-17T08:01:59.196Z,91.14
2023-01-17T08:02:59.051Z,91.52
2023-01-17T08:03:59.062Z,90.62
2023-01-17T08:04:59.043Z,90.62
2023-01-17T08:05:59.035Z,91.00
2023-01-17T08:06:59.025Z,90.58
2023-01-17T08:07:59.066Z,91.41
2023-01-17T08:08:59.065Z,90.89
2023-01-17T08:09:59.008Z,91.46
2023-01-17T08:10:59.005Z,91.56
2023-01-17T08:11:58.998Z,90.83
2023-01-17T08:12:58.987Z,90.62
2023-01-17T08:13:59.046Z,89.47
2023-01-17T08:14:58.988Z,91.25
2023-01-17T08:15:58.952Z,91.04
2023-01-17T08:16:58.958Z,90.41
2023-01-17T08:17:58.947Z,91.10
2023-01-17T08:18:58.936Z,91.35
2023-01-17T08:19:59.022Z,90.72
2023-01-17T08:20:58.931Z,91.35
2023-01-17T08:21:58.914Z,91.46
2023-01-17T08:22:58.926Z,90.52
2023-01-17T08:23:58.907Z,91.18
2023-01-17T08:24:58.908Z,91.25
2023-01-17T08:25:58.944Z,91.25
2023-01-17T08:26:58.886Z,90.31
2023-01-17T08:27:58.886Z,91.04
2023-01-17T08:28:58.869Z,89.89
2023-01-17T08:29:58.840Z,90.20
2023-01-17T08:30:58.872Z,91.14
2023-01-17T08:31:58.926Z,90.41
2023-01-17T08:32:58.833Z,90.47
2023-01-17T08:33:58.858Z,90.16
2023-01-17T08:34:58.820Z,90.52
2023-01-17T08:35:58.810Z,90.10
2023-01-17T08:36:58.862Z,90.10
2023-01-17T08:37:58.864Z,89.89
2023-01-17T08:38:58.817Z,90.20
2023-01-17T08:39:58.809Z,90.47
2023-01-17T08:40:58.775Z,90.58
2023-01-17T08:41:58.790Z,90.62
2023-01-17T08:42:58.787Z,90.31
2023-01-17T08:43:58.846Z,89.32
2023-01-17T08:44:58.753Z,89.78
2023-01-17T08:45:58.804Z,89.95
2023-01-17T08:46:58.758Z,89.29
2023-01-17T08:47:58.742Z,90.16
2023-01-17T08:48:58.752Z,90.12
2023-01-17T08:49:58.807Z,90.33
2023-01-17T08:50:58.727Z,89.70
2023-01-17T08:51:58.719Z,89.29
2023-01-17T08:53:00.861Z,89.29
2023-01-17T08:53:58.698Z,88.35
2023-01-17T08:54:58.694Z,88.56
2023-01-17T08:55:58.743Z,88.76
2023-01-17T08:56:58.677Z,89.70
2023-01-17T08:57:58.663Z,88.42
2023-01-17T08:58:58.668Z,88.83
2023-01-17T08:59:58.664Z,88.62
2023-01-17T09:00:58.797Z,86.60
2023-01-17T09:01:59.354Z,86.40
2023-01-17T09:02:58.632Z,85.98
2023-01-17T09:03:58.661Z,84.21
2023-01-17T09:04:58.621Z,85.46
2023-01-17T09:05:58.615Z,86.88
2023-01-17T09:06:58.613Z,85.65
2023-01-17T09:07:58.686Z,82.70
2023-01-17T09:08:58.576Z,82.94
2023-01-17T09:09:58.573Z,80.99
2023-01-17T09:10:58.579Z,80.85
2023-01-17T09:11:58.557Z,78.75
2023-01-17T09:12:58.586Z,76.57
2023-01-17T09:13:58.615Z,77.36
2023-01-17T09:14:58.549Z,75.81
2023-01-17T09:15:58.546Z,75.05
2023-01-17T09:16:58.537Z,74.98
2023-01-17T09:17:58.522Z,77.09
2023-01-17T09:18:58.505Z,77.36
2023-01-17T09:19:58.577Z,74.88
2023-01-17T09:20:58.523Z,77.12
2023-01-17T09:21:58.518Z,75.70
2023-01-17T09:22:58.484Z,74.74
2023-01-17T09:23:58.507Z,73.98
2023-01-17T09:24:58.475Z,72.26
2023-01-17T09:25:58.526Z,72.95
2023-01-17T09:26:58.475Z,73.26
2023-01-17T09:27:58.446Z,72.78
2023-01-17T09:28:58.592Z,74.26
2023-01-17T09:29:58.438Z,74.15
2023-01-17T09:30:58.516Z,73.33
2023-01-17T09:31:58.456Z,74.36
2023-01-17T09:32:58.389Z,73.64
2023-01-17T09:33:58.429Z,73.32
2023-01-17T09:34:58.409Z,75.81
2023-01-17T09:35:58.372Z,76.74
2023-01-17T09:36:58.419Z,75.92
2023-01-17T09:37:58.410Z,76.36
2023-01-17T09:38:58.386Z,76.92
2023-01-17T09:39:58.369Z,78.44
2023-01-17T09:40:58.390Z,79.13
2023-01-17T09:41:58.350Z,78.68
2023-01-17T09:42:58.353Z,76.67
2023-01-17T09:43:58.397Z,75.71
2023-01-17T09:44:58.343Z,76.09
2023-01-17T09:45:58.344Z,76.75
2023-01-17T09:46:58.335Z,77.37
2023-01-17T09:47:58.316Z,78.99
2023-01-17T09:48:58.299Z,80.07
2023-01-17T09:49:58.368Z,80.52
2023-01-17T09:50:58.297Z,81.04
2023-01-17T09:51:58.304Z,80.21
2023-01-17T09:52:58.259Z,79.27
2023-01-17T09:53:58.310Z,79.38
2023-01-17T09:54:58.251Z,79.58
2023-01-17T09:55:58.317Z,79.27
2023-01-17T09:56:58.289Z,80.00
2023-01-17T09:57:58.241Z,79.86
2023-01-17T09:58:58.220Z,78.75
2023-01-17T10:00:03.198Z,78.65
2023-01-17T10:00:59.299Z,78.34
2023-01-17T10:01:58.338Z,78.34
2023-01-17T10:02:58.305Z,77.16
2023-01-17T10:03:58.277Z,78.82
2023-01-17T10:04:58.211Z,78.27
2023-01-17T10:05:58.189Z,79.61
2023-01-17T10:06:58.637Z,79.83
2023-01-17T10:07:58.765Z,80.07
2023-01-17T10:08:58.177Z,79.93
2023-01-17T10:09:58.138Z,80.21
2023-01-17T10:10:58.146Z,75.67
2023-01-17T10:11:58.123Z,74.43
2023-01-17T10:12:58.185Z,72.47
2023-01-17T10:13:58.156Z,69.23
2023-01-17T10:14:58.113Z,68.88
2023-01-17T10:16:00.055Z,69.16
2023-01-17T10:17:01.779Z,70.15
2023-01-17T10:17:58.102Z,70.91
2023-01-17T10:18:58.176Z,71.11
2023-01-17T10:19:58.749Z,72.60
2023-01-17T10:20:58.099Z,70.94
2023-01-17T10:21:58.077Z,73.11
2023-01-17T10:22:58.046Z,73.88
2023-01-17T10:23:58.059Z,70.74
2023-01-17T10:24:58.101Z,68.54
2023-01-17T10:25:58.048Z,66.41
2023-01-17T10:26:58.034Z,66.11
2023-01-17T10:27:58.023Z,63.78
2023-01-17T10:29:06.660Z,62.93
2023-01-17T10:29:58.017Z,62.38
2023-01-17T10:30:58.148Z,61.19
2023-01-17T10:31:58.004Z,61.12
2023-01-17T10:32:58.038Z,60.63
2023-01-17T10:33:57.978Z,62.75
2023-01-17T10:34:57.959Z,61.46
2023-01-17T10:35:58.043Z,60.37
2023-01-17T10:36:58.094Z,60.75
2023-01-17T10:37:57.951Z,59.27
2023-01-17T10:38:57.959Z,61.15
2023-01-17T10:39:57.989Z,61.13
2023-01-17T10:40:57.930Z,62.63
2023-01-17T10:41:57.940Z,63.01
2023-01-17T10:42:57.952Z,63.03
2023-01-17T10:43:57.890Z,59.68
2023-01-17T10:44:57.879Z,58.80
2023-01-17T10:45:57.986Z,59.58
2023-01-17T10:46:57.889Z,59.66
2023-01-17T10:47:57.869Z,60.46
2023-01-17T10:48:57.926Z,63.21
2023-01-17T10:49:57.849Z,65.79
2023-01-17T10:50:57.874Z,63.89
2023-01-17T10:51:57.848Z,61.41
2023-01-17T10:52:57.877Z,60.59
2023-01-17T10:53:58.689Z,61.49
2023-01-17T10:54:57.878Z,61.28
2023-01-17T10:55:57.868Z,60.46
2023-01-17T10:56:57.867Z,61.26
2023-01-17T10:57:57.788Z,61.61
2023-01-17T10:58:57.841Z,62.13
2023-01-17T10:59:57.786Z,61.46
2023-01-17T11:00:57.964Z,61.47
2023-01-17T11:01:57.921Z,58.54
2023-01-17T11:02:57.803Z,56.71
2023-01-17T11:03:57.835Z,56.98
2023-01-17T11:04:57.776Z,55.38
2023-01-17T11:05:57.821Z,55.33
2023-01-17T11:06:58.531Z,57.46
2023-01-17T11:07:57.786Z,56.71
2023-01-17T11:08:57.730Z,54.79
2023-01-17T11:09:57.768Z,56.20
2023-01-17T11:10:57.697Z,55.72
2023-01-17T11:11:57.686Z,58.23
2023-01-17T11:12:58.247Z,57.05
2023-01-17T11:13:57.718Z,56.34
2023-01-17T11:14:57.717Z,57.23
2023-01-17T11:15:57.827Z,58.59
2023-01-17T11:17:04.837Z,59.77
2023-01-17T11:17:57.729Z,56.43
2023-01-17T11:18:57.861Z,57.23
2023-01-17T11:19:57.675Z,58.01
2023-01-17T11:20:57.724Z,59.26
2023-01-17T11:21:57.774Z,57.21
2023-01-17T11:22:57.697Z,56.49
2023-01-17T11:23:57.672Z,53.54
2023-01-17T11:24:57.815Z,51.95
2023-01-17T11:25:57.613Z,52.54
2023-01-17T11:26:57.624Z,53.89
2023-01-17T11:27:57.602Z,55.87
2023-01-17T11:28:57.598Z,56.34
2023-01-17T11:29:57.551Z,53.51
2023-01-17T11:30:57.651Z,53.03
2023-01-17T11:31:57.565Z,52.90
2023-01-17T11:32:57.569Z,51.29
2023-01-17T11:33:57.535Z,51.07
2023-01-17T11:34:57.519Z,53.00
2023-01-17T11:35:57.551Z,55.26
2023-01-17T11:36:57.578Z,57.14
2023-01-17T11:37:57.507Z,58.29
2023-01-17T11:38:57.507Z,59.48
2023-01-17T11:39:57.497Z,62.74
2023-01-17T11:40:57.476Z,62.17
2023-01-17T11:41:57.507Z,63.99
2023-01-17T11:42:57.538Z,65.22
2023-01-17T11:43:57.471Z,66.18
2023-01-17T11:44:57.460Z,67.79
2023-01-17T11:45:57.479Z,69.56
2023-01-17T11:46:57.423Z,70.07
2023-01-17T11:47:57.439Z,70.28
2023-01-17T11:48:57.496Z,70.00
2023-01-17T11:49:57.408Z,70.87
2023-01-17T11:50:57.419Z,71.49
2023-01-17T11:51:57.416Z,72.01
2023-01-17T11:52:57.400Z,71.31
2023-01-17T11:53:57.402Z,72.25
2023-01-17T11:54:57.422Z,72.35
2023-01-17T11:55:57.412Z,73.28
2023-01-17T11:56:57.404Z,73.43
2023-01-17T11:57:57.348Z,72.97
2023-01-17T11:58:57.359Z,73.80
2023-01-17T11:59:57.368Z,75.26
2023-01-17T12:00:57.453Z,75.40
2023-01-17T12:01:57.346Z,74.95
2023-01-17T12:02:57.326Z,74.46
2023-01-17T12:03:57.367Z,74.88
2023-01-17T12:04:57.358Z,74.57
2023-01-17T12:05:57.333Z,75.60
2023-01-17T12:06:58.570Z,75.05
2023-01-17T12:07:57.306Z,74.53
2023-01-17T12:08:57.297Z,75.15
2023-01-17T12:09:57.277Z,75.85
2023-01-17T12:10:57.295Z,73.36
2023-01-17T12:11:57.281Z,73.22
2023-01-17T12:12:57.518Z,72.74
2023-01-17T12:13:57.267Z,72.97
2023-01-17T12:14:57.236Z,74.50
2023-01-17T12:15:57.288Z,74.19
2023-01-17T12:16:57.235Z,73.15
2023-01-17T12:17:57.231Z,73.57
2023-01-17T12:18:57.297Z,72.80
2023-01-17T12:19:57.212Z,74.32
2023-01-17T12:20:57.196Z,72.42
2023-01-17T12:21:57.190Z,71.43
2023-01-17T12:22:57.219Z,68.19
2023-01-17T12:23:57.165Z,68.74
2023-01-17T12:24:57.233Z,68.33
2023-01-17T12:25:57.186Z,64.95
2023-01-17T12:26:57.222Z,63.31
2023-01-17T12:27:57.147Z,61.49
2023-01-17T12:28:57.154Z,62.47
2023-01-17T12:29:57.144Z,63.81
2023-01-17T12:30:57.210Z,61.75
2023-01-17T12:31:57.166Z,62.84
2023-01-17T12:32:57.102Z,64.49
2023-01-17T12:33:57.133Z,64.90
2023-01-17T12:34:57.126Z,63.75
2023-01-17T12:35:57.127Z,61.91
2023-01-17T12:36:57.138Z,59.96
2023-01-17T12:38:04.608Z,59.58
2023-01-17T12:38:58.112Z,59.22
2023-01-17T12:39:57.093Z,60.77
2023-01-17T12:40:57.086Z,63.06
2023-01-17T12:41:57.048Z,64.81
2023-01-17T12:42:57.177Z,64.89
2023-01-17T12:43:57.046Z,63.62
2023-01-17T12:44:57.073Z,63.79
2023-01-17T12:45:57.076Z,64.21
2023-01-17T12:46:57.037Z,60.93
2023-01-17T12:47:57.018Z,61.30
2023-01-17T12:48:57.085Z,60.97
2023-01-17T12:49:57.019Z,61.21
2023-01-17T12:50:57.015Z,62.58
2023-01-17T12:51:57.003Z,63.93